Time;durP1;ratioP1;P1;durP2;ratioP2;P2;SDS_P1;SDS_P2;PMS_P1;PMS_P2;Temp;Humidity;BMP_temperature;BMP_pressure;BME280_temperature;BME280_humidity;BME280_pressure;Samples;Min_cycle;Max_cycle;Signal;HPM_P1;HPM_P2
2022/04/10 00:00:19;;;;;;;17.35;2.40;;;;;;;;;;5088841;28;20394;-72
2022/04/10 00:02:45;;;;;;;20.73;3.20;;;;;;;;;;5089636;28;20050;-72
2022/04/10 00:05:11;;;;;;;15.18;3.00;;;;;;;;;;5085533;28;20104;-73
2022/04/10 00:07:37;;;;;;;19.77;2.95;;;;;;;;;;5087637;27;20040;-73
2022/04/10 00:10:04;;;;;;;17.02;3.50;;;;;;;;;;5104374;27;20069;-73
2022/04/10 00:12:32;;;;;;;14.70;2.92;;;;;;;;;;5088722;28;20043;-73
2022/04/10 00:14:58;;;;;;;21.95;2.80;;;;;;;;;;5091628;28;20092;-73
2022/04/10 00:17:24;;;;;;;12.50;2.25;;;;;;;;;;5088982;28;20052;-74
2022/04/10 00:19:50;;;;;;;16.98;2.97;;;;;;;;;;5075124;28;20114;-73
2022/04/10 00:22:16;;;;;;;19.25;2.80;;;;;;;;;;5088265;28;20058;-75
2022/04/10 00:24:42;;;;;;;21.25;3.15;;;;;;;;;;5086556;28;20107;-74
2022/04/10 00:27:13;;;;;;;18.08;3.05;;;;;;;;;;5086020;28;20035;-74
2022/04/10 00:29:40;;;;;;;21.35;2.95;;;;;;;;;;5070657;28;20054;-74
2022/04/10 00:32:06;;;;;;;18.00;2.85;;;;;;;;;;5074223;27;20494;-76
2022/04/10 00:34:32;;;;;;;17.38;3.45;;;;;;;;;;5122164;27;20058;-73
2022/04/10 00:36:58;;;;;;;21.70;3.55;;;;;;;;;;5089786;28;20096;-74
2022/04/10 00:39:24;;;;;;;17.15;2.95;;;;;;;;;;5087890;27;20054;-73
2022/04/10 00:41:51;;;;;;;20.05;2.78;;;;;;;;;;5072875;28;20044;-74
2022/04/10 00:44:17;;;;;;;20.02;3.17;;;;;;;;;;5055499;28;20036;-74
2022/04/10 00:46:43;;;;;;;15.18;3.15;;;;;;;;;;5071168;28;20055;-74
2022/04/10 00:49:09;;;;;;;24.55;4.47;;;;;;;;;;5121492;27;20573;-73
2022/04/10 00:51:42;;;;;;;20.10;4.18;;;;;;;;;;5084928;28;20047;-74
2022/04/10 00:54:15;;;;;;;18.97;4.10;;;;;;;;;;5119720;27;20088;-74
2022/04/10 00:56:42;;;;;;;16.50;2.88;;;;;;;;;;5071130;28;20051;-76
2022/04/10 00:59:08;;;;;;;27.90;4.65;;;;;;;;;;5085782;28;20047;-74
2022/04/10 01:01:35;;;;;;;20.75;3.38;;;;;;;;;;5089356;27;20096;-75
2022/04/10 01:04:02;;;;;;;17.05;2.95;;;;;;;;;;5087222;28;20039;-74
2022/04/10 01:06:29;;;;;;;17.42;2.78;;;;;;;;;;5087942;28;20095;-74
2022/04/10 01:08:57;;;;;;;19.30;3.03;;;;;;;;;;5071984;27;20043;-75
2022/04/10 01:11:23;;;;;;;24.67;4.30;;;;;;;;;;5090835;28;20435;-77
2022/04/10 01:13:49;;;;;;;14.43;2.75;;;;;;;;;;5073248;28;20069;-73
2022/04/10 01:16:15;;;;;;;23.75;3.70;;;;;;;;;;5073670;28;20290;-77
2022/04/10 01:18:42;;;;;;;16.20;2.80;;;;;;;;;;5105226;28;20386;-73
2022/04/10 01:21:08;;;;;;;19.73;3.22;;;;;;;;;;5113371;28;20048;-74
2022/04/10 01:23:34;;;;;;;27.15;2.97;;;;;;;;;;5054986;28;20189;-74
2022/04/10 01:26:00;;;;;;;14.35;2.90;;;;;;;;;;5083399;28;20080;-76
2022/04/10 01:28:26;;;;;;;21.75;5.15;;;;;;;;;;5090307;28;20090;-73
2022/04/10 01:30:52;;;;;;;19.20;2.88;;;;;;;;;;5091949;28;20040;-73
2022/04/10 01:33:18;;;;;;;22.88;3.08;;;;;;;;;;5059108;28;20381;-74
2022/04/10 01:35:45;;;;;;;20.27;3.15;;;;;;;;;;5092367;27;20069;-74
2022/04/10 01:38:12;;;;;;;16.92;3.08;;;;;;;;;;5075879;28;20051;-74
2022/04/10 01:40:38;;;;;;;17.75;3.03;;;;;;;;;;5091168;28;20134;-73
2022/04/10 01:43:05;;;;;;;18.45;3.55;;;;;;;;;;5093738;28;20043;-73
2022/04/10 01:45:31;;;;;;;15.50;2.90;;;;;;;;;;5081762;27;20054;-74
2022/04/10 01:47:57;;;;;;;15.55;2.58;;;;;;;;;;5090757;27;20035;-77
2022/04/10 01:50:24;;;;;;;14.20;2.78;;;;;;;;;;5074699;28;20071;-74
2022/04/10 01:52:50;;;;;;;20.75;3.55;;;;;;;;;;5074897;28;20040;-73
2022/04/10 01:55:16;;;;;;;15.20;3.47;;;;;;;;;;5094667;28;20044;-74
2022/04/10 01:57:42;;;;;;;15.20;2.83;;;;;;;;;;5092151;28;20142;-74
2022/04/10 02:00:09;;;;;;;19.08;3.80;;;;;;;;;;5078176;27;20108;-74
2022/04/10 02:02:35;;;;;;;22.05;3.03;;;;;;;;;;5092651;27;20090;-74
2022/04/10 02:05:01;;;;;;;14.55;2.72;;;;;;;;;;5074072;28;20048;-74
2022/04/10 02:07:27;;;;;;;18.52;3.45;;;;;;;;;;5076853;28;20047;-74
2022/04/10 02:09:53;;;;;;;24.77;3.50;;;;;;;;;;5090699;28;20143;-75
2022/04/10 02:12:19;;;;;;;25.00;3.28;;;;;;;;;;5091868;28;20097;-74
2022/04/10 02:14:45;;;;;;;18.55;2.95;;;;;;;;;;5091065;28;20050;-74
2022/04/10 02:17:11;;;;;;;13.93;2.92;;;;;;;;;;5093265;28;20042;-73
2022/04/10 02:19:37;;;;;;;14.05;2.97;;;;;;;;;;5076131;27;20035;-74
2022/04/10 02:22:03;;;;;;;15.68;2.40;;;;;;;;;;5088277;28;20475;-73
2022/04/10 02:24:29;;;;;;;17.20;2.97;;;;;;;;;;5076391;28;20051;-73
2022/04/10 02:26:55;;;;;;;13.82;2.33;;;;;;;;;;5092864;28;20047;-74
2022/04/10 02:29:22;;;;;;;22.27;3.42;;;;;;;;;;5088808;28;20044;-76
2022/04/10 02:31:48;;;;;;;20.00;3.08;;;;;;;;;;5094790;27;20035;-73
2022/04/10 02:34:14;;;;;;;12.57;2.33;;;;;;;;;;5093997;27;20032;-74
2022/04/10 02:36:40;;;;;;;14.88;2.60;;;;;;;;;;5091039;28;20402;-73
2022/04/10 02:39:06;;;;;;;15.48;2.70;;;;;;;;;;5074198;28;20055;-74
2022/04/10 02:41:32;;;;;;;13.38;2.38;;;;;;;;;;5103611;28;20096;-76
2022/04/10 02:43:58;;;;;;;15.65;3.13;;;;;;;;;;5091122;28;20042;-74
2022/04/10 02:46:25;;;;;;;17.83;3.05;;;;;;;;;;5098386;27;20046;-74
2022/04/10 02:48:51;;;;;;;17.10;2.33;;;;;;;;;;5083312;28;20044;-73
2022/04/10 02:51:17;;;;;;;21.48;2.95;;;;;;;;;;5089739;27;20070;-74
2022/04/10 02:53:43;;;;;;;14.20;3.25;;;;;;;;;;5074600;27;20118;-74
2022/04/10 02:56:09;;;;;;;12.20;2.60;;;;;;;;;;5088785;27;20036;-74
2022/04/10 02:58:35;;;;;;;15.25;2.53;;;;;;;;;;5092603;28;20054;-74
2022/04/10 03:01:01;;;;;;;14.40;2.88;;;;;;;;;;5088940;28;20047;-75
2022/04/10 03:03:27;;;;;;;13.98;2.72;;;;;;;;;;5075578;28;20043;-74
2022/04/10 03:05:53;;;;;;;13.70;2.72;;;;;;;;;;5091931;27;20126;-75
2022/04/10 03:08:21;;;;;;;15.10;3.65;;;;;;;;;;5076983;28;20071;-74
2022/04/10 03:10:47;;;;;;;9.68;2.40;;;;;;;;;;5076929;28;20109;-73
2022/04/10 03:13:15;;;;;;;12.13;2.67;;;;;;;;;;5090856;28;20051;-74
2022/04/10 03:15:41;;;;;;;13.60;2.45;;;;;;;;;;5089288;28;20078;-73
2022/04/10 03:18:07;;;;;;;12.68;1.80;;;;;;;;;;5088473;28;20079;-74
2022/04/10 03:20:34;;;;;;;13.68;2.03;;;;;;;;;;5090484;28;20048;-75
2022/04/10 03:23:00;;;;;;;5.22;1.20;;;;;;;;;;5090017;28;20090;-73
2022/04/10 03:25:26;;;;;;;8.38;1.42;;;;;;;;;;5088848;28;20410;-74
2022/04/10 03:27:52;;;;;;;6.93;1.10;;;;;;;;;;5091627;28;20058;-73
2022/04/10 03:30:18;;;;;;;7.22;1.60;;;;;;;;;;5089468;28;20419;-74
2022/04/10 03:32:44;;;;;;;7.50;1.52;;;;;;;;;;5106745;27;20104;-76
2022/04/10 03:35:10;;;;;;;8.52;1.27;;;;;;;;;;5089165;28;20139;-73
2022/04/10 03:37:36;;;;;;;10.02;1.20;;;;;;;;;;5072300;28;20051;-73
2022/04/10 03:40:04;;;;;;;7.60;1.30;;;;;;;;;;5088701;28;20084;-74
2022/04/10 03:42:37;;;;;;;9.52;1.45;;;;;;;;;;5104599;28;20047;-73
2022/04/10 03:45:03;;;;;;;5.88;1.45;;;;;;;;;;5090706;28;20119;-73
2022/04/10 03:47:29;;;;;;;4.88;1.50;;;;;;;;;;5090025;28;20052;-73
2022/04/10 03:49:55;;;;;;;3.80;1.40;;;;;;;;;;5073850;28;20055;-73
2022/04/10 03:52:21;;;;;;;11.70;1.38;;;;;;;;;;5075360;28;20092;-73
2022/04/10 03:54:47;;;;;;;5.85;1.17;;;;;;;;;;5074685;28;20131;-73
2022/04/10 03:57:13;;;;;;;8.23;1.33;;;;;;;;;;5088973;28;20074;-74
2022/04/10 03:59:39;;;;;;;8.15;1.58;;;;;;;;;;5088735;28;20047;-74
2022/04/10 04:02:05;;;;;;;5.63;1.05;;;;;;;;;;5088847;28;20055;-74
2022/04/10 04:04:31;;;;;;;9.98;1.30;;;;;;;;;;5085672;28;20047;-73
2022/04/10 04:06:58;;;;;;;7.75;1.40;;;;;;;;;;5087948;28;20474;-73
2022/04/10 04:09:25;;;;;;;6.30;1.35;;;;;;;;;;5070870;27;20103;-74
2022/04/10 04:11:51;;;;;;;6.03;1.10;;;;;;;;;;5088126;28;20075;-74
2022/04/10 04:14:19;;;;;;;6.60;1.27;;;;;;;;;;5090104;28;20101;-73
2022/04/10 04:16:45;;;;;;;3.17;0.90;;;;;;;;;;5088403;28;20099;-73
2022/04/10 04:19:11;;;;;;;6.13;1.58;;;;;;;;;;5091327;28;20039;-73
2022/04/10 04:21:37;;;;;;;7.57;2.72;;;;;;;;;;5088053;28;20055;-73
2022/04/10 04:24:03;;;;;;;4.10;1.15;;;;;;;;;;5089208;28;20048;-73
2022/04/10 04:26:29;;;;;;;6.50;1.52;;;;;;;;;;5091182;27;20043;-72
2022/04/10 04:28:55;;;;;;;10.65;1.88;;;;;;;;;;5072478;27;20147;-73
2022/04/10 04:31:21;;;;;;;7.40;1.25;;;;;;;;;;5089074;28;20375;-73
2022/04/10 04:33:47;;;;;;;6.88;1.63;;;;;;;;;;5071026;28;20395;-72
2022/04/10 04:36:13;;;;;;;10.32;2.63;;;;;;;;;;5129432;27;20524;-75
2022/04/10 04:38:39;;;;;;;7.40;1.20;;;;;;;;;;5086767;28;20093;-73
2022/04/10 04:41:05;;;;;;;8.45;1.77;;;;;;;;;;5072645;28;20051;-73
2022/04/10 04:43:31;;;;;;;8.55;1.38;;;;;;;;;;5087593;28;20073;-73
2022/04/10 04:45:57;;;;;;;7.43;1.60;;;;;;;;;;5085254;28;20050;-73
2022/04/10 04:48:23;;;;;;;10.43;1.60;;;;;;;;;;5071976;28;20047;-73
2022/04/10 04:50:49;;;;;;;12.50;1.33;;;;;;;;;;5092547;28;20180;-73
2022/04/10 04:53:15;;;;;;;7.22;1.75;;;;;;;;;;5058287;27;20078;-73
2022/04/10 04:55:42;;;;;;;6.65;1.27;;;;;;;;;;5085844;28;20119;-73
2022/04/10 04:58:08;;;;;;;7.57;1.42;;;;;;;;;;5106455;28;20478;-73
2022/04/10 05:00:34;;;;;;;5.35;1.63;;;;;;;;;;5073414;28;20062;-73
2022/04/10 05:03:00;;;;;;;9.05;1.70;;;;;;;;;;5071065;28;20047;-73
2022/04/10 05:05:26;;;;;;;10.00;1.50;;;;;;;;;;5054706;28;20056;-73
2022/04/10 05:07:52;;;;;;;6.90;1.40;;;;;;;;;;5089460;28;20045;-73
2022/04/10 05:10:18;;;;;;;9.07;1.90;;;;;;;;;;5088919;28;20388;-72
2022/04/10 05:12:44;;;;;;;13.00;2.28;;;;;;;;;;5091915;28;20497;-73
2022/04/10 05:15:10;;;;;;;7.93;1.90;;;;;;;;;;5070015;28;20167;-73
2022/04/10 05:17:36;;;;;;;13.27;1.80;;;;;;;;;;5057782;28;20047;-73
2022/04/10 05:20:07;;;;;;;9.88;2.05;;;;;;;;;;5116247;28;20080;-72
2022/04/10 05:22:33;;;;;;;8.00;1.80;;;;;;;;;;5119905;27;20051;-73
2022/04/10 05:25:00;;;;;;;8.65;2.15;;;;;;;;;;5070957;28;20040;-72
2022/04/10 05:27:26;;;;;;;7.88;1.85;;;;;;;;;;5073812;28;20055;-74
2022/04/10 05:29:52;;;;;;;12.70;1.98;;;;;;;;;;5091842;28;20054;-73
2022/04/10 05:32:18;;;;;;;10.68;2.00;;;;;;;;;;5119291;27;20038;-76
2022/04/10 05:34:45;;;;;;;10.05;1.73;;;;;;;;;;5131237;27;20040;-73
2022/04/10 05:37:11;;;;;;;7.25;1.70;;;;;;;;;;5087761;28;20486;-72
2022/04/10 05:39:39;;;;;;;14.77;2.28;;;;;;;;;;5086696;28;20189;-73
2022/04/10 05:42:06;;;;;;;17.83;2.47;;;;;;;;;;5121316;27;20055;-73
2022/04/10 05:44:32;;;;;;;12.27;1.70;;;;;;;;;;5087337;28;20047;-72
2022/04/10 05:46:58;;;;;;;11.13;2.17;;;;;;;;;;5114226;27;20042;-72
2022/04/10 05:49:24;;;;;;;11.57;1.65;;;;;;;;;;5092997;28;20135;-74
2022/04/10 05:51:51;;;;;;;9.98;1.77;;;;;;;;;;5089729;28;20050;-73
2022/04/10 05:54:17;;;;;;;10.60;1.80;;;;;;;;;;5111638;27;20600;-73
2022/04/10 05:56:43;;;;;;;10.15;1.55;;;;;;;;;;5087662;28;20047;-73
2022/04/10 05:59:09;;;;;;;;;;;;;;;;;;5072814;28;20054;-73
2022/04/10 06:01:35;;;;;;;14.63;1.77;;;;;;;;;;5089625;28;19932;-75
2022/04/10 06:04:01;;;;;;;5.07;2.00;;;;;;;;;;5071387;28;20123;-72
2022/04/10 06:06:27;;;;;;;6.53;2.20;;;;;;;;;;5089802;28;20135;-72
2022/04/10 06:08:53;;;;;;;6.80;1.75;;;;;;;;;;5090289;28;20093;-73
2022/04/10 06:11:19;;;;;;;6.93;1.38;;;;;;;;;;5087960;28;20036;-77
2022/04/10 06:13:45;;;;;;;5.80;1.83;;;;;;;;;;5086676;28;20035;-72
2022/04/10 06:16:11;;;;;;;;;;;;;;;;;;5092083;27;20168;-73
2022/04/10 06:18:37;;;;;;;;;;;;;;;;;;5093131;28;19919;-73
2022/04/10 06:21:03;;;;;;;;;;;;;;;;;;5123407;27;19928;-73
2022/04/10 06:23:29;;;;;;;;;;;;;;;;;;5076883;27;19919;-72
2022/04/10 06:25:55;;;;;;;;;;;;;;;;;;5077316;28;19945;-73
2022/04/10 06:28:21;;;;;;;;;;;;;;;;;;5093042;28;19919;-73
2022/04/10 06:30:47;;;;;;;;;;;;;;;;;;5125924;27;20050;-72
2022/04/10 06:33:14;;;;;;;;;;;;;;;;;;5094560;27;20737;-77
2022/04/10 06:35:40;;;;;;;;;;;;;;;;;;5089388;28;19951;-73
2022/04/10 06:38:06;;;;;;;;;;;;;;;;;;5088683;28;19928;-73
2022/04/10 06:40:31;;;;;;;;;;;;;;;;;;5074582;27;19927;-72
2022/04/10 06:42:57;;;;;;;;;;;;;;;;;;5081094;28;19920;-73
2022/04/10 06:45:23;;;;;;;;;;;;;;;;;;5089980;28;19941;-73
2022/04/10 06:47:49;;;;;;;;;;;;;;;;;;5124381;27;20273;-74
2022/04/10 06:50:15;;;;;;;;;;;;;;;;;;5092369;28;20348;-73
2022/04/10 06:52:42;;;;;;;;;;;;;;;;;;5086813;27;19919;-74
2022/04/10 06:55:09;;;;;;;8.38;1.95;;;;;;;;;;5093480;28;19927;-78
2022/04/10 06:57:35;;;;;;;8.75;2.13;;;;;;;;;;5107601;27;20036;-73
2022/04/10 07:00:01;;;;;;;;;;;;;;;;;;5092476;28;20478;-74
2022/04/10 07:02:27;;;;;;;;;;;;;;;;;;5102188;27;19927;-73
2022/04/10 07:04:53;;;;;;;;;;;;;;;;;;5126968;27;19924;-74
2022/04/10 07:07:19;;;;;;;;;;;;;;;;;;5091495;28;20006;-75
2022/04/10 07:09:45;;;;;;;;;;;;;;;;;;5090974;28;20354;-73
2022/04/10 07:12:11;;;;;;;;;;;;;;;;;;5090361;28;20366;-73
2022/04/10 07:14:37;;;;;;;;;;;;;;;;;;5094281;27;19923;-73
2022/04/10 07:17:02;;;;;;;;;;;;;;;;;;5123318;27;21655;-76
2022/04/10 07:19:28;;;;;;;;;;;;;;;;;;5099376;27;20350;-73
2022/04/10 07:24:39;;;;;;;;;;;;;;;;;;5089928;28;20166;-73
2022/04/10 07:27:05;;;;;;;;;;;;;;;;;;5123517;27;19946;-73
2022/04/10 07:29:31;;;;;;;;;;;;;;;;;;5081414;28;20595;-73
2022/04/10 07:31:57;;;;;;;;;;;;;;;;;;5100136;27;20010;-73
2022/04/10 07:34:23;;;;;;;;;;;;;;;;;;5097772;28;19919;-73
2022/04/10 07:36:49;;;;;;;;;;;;;;;;;;5076072;28;19950;-73
2022/04/10 07:39:15;;;;;;;;;;;;;;;;;;5123726;27;19927;-74
2022/04/10 07:41:41;;;;;;;;;;;;;;;;;;5074460;28;19927;-73
2022/04/10 07:44:07;;;;;;;;;;;;;;;;;;5072958;28;19942;-74
2022/04/10 07:49:18;;;;;;;;;;;;;;;;;;5089922;28;19920;-74
2022/04/10 07:51:44;;;;;;;;;;;;;;;;;;5088708;28;19927;-73
2022/04/10 07:54:11;;;;;;;;;;;;;;;;;;5073351;28;19964;-73
2022/04/10 07:56:37;;;;;;;;;;;;;;;;;;5115485;27;19949;-73
2022/04/10 07:59:03;;;;;;;;;;;;;;;;;;5089974;28;19919;-73
2022/04/10 08:01:29;;;;;;;;;;;;;;;;;;5121145;27;19928;-73
2022/04/10 08:03:55;;;;;;;;;;;;;;;;;;5087961;28;20385;-77
2022/04/10 08:06:21;;;;;;;;;;;;;;;;;;5125320;27;19982;-74
2022/04/10 08:08:47;;;;;;;;;;;;;;;;;;5123562;27;19984;-74
2022/04/10 08:11:12;;;;;;;;;;;;;;;;;;5072245;28;20349;-73
2022/04/10 08:13:38;;;;;;;;;;;;;;;;;;5089001;28;20010;-74
2022/04/10 08:16:04;;;;;;;;;;;;;;;;;;5093028;27;20399;-74
2022/04/10 08:18:30;;;;;;;;;;;;;;;;;;5091525;28;19931;-74
2022/04/10 08:20:56;;;;;;;;;;;;;;;;;;5074884;27;20318;-74
2022/04/10 08:23:22;;;;;;;;;;;;;;;;;;5073199;27;19920;-73
2022/04/10 08:25:48;;;;;;;;;;;;;;;;;;5107604;27;20055;-78
2022/04/10 08:28:14;;;;;;;;;;;;;;;;;;5108293;27;20018;-74
2022/04/10 08:30:40;;;;;;;;;;;;;;;;;;5087561;28;19927;-74
2022/04/10 08:33:08;;;;;;;;;;;;;;;;;;5091012;28;19919;-74
2022/04/10 08:35:34;;;;;;;;;;;;;;;;;;5073369;28;21353;-75
2022/04/10 08:38:00;;;;;;;;;;;;;;;;;;5096330;28;20012;-74
2022/04/10 08:40:26;;;;;;;;;;;;;;;;;;5118471;27;20023;-75
2022/04/10 08:42:52;;;;;;;;;;;;;;;;;;5088000;28;19923;-74
2022/04/10 08:45:18;;;;;;;;;;;;;;;;;;5087273;28;19928;-74
2022/04/10 08:47:44;;;;;;;;;;;;;;;;;;5126701;27;19923;-77
2022/04/10 08:50:10;;;;;;;;;;;;;;;;;;5130332;27;19974;-74
2022/04/10 08:52:36;;;;;;;;;;;;;;;;;;5132269;27;19967;-74
2022/04/10 08:55:02;;;;;;;12.20;2.53;;;;;;;;;;5126381;27;19927;-74
2022/04/10 08:57:28;;;;;;;9.13;2.10;;;;;;;;;;5086025;28;20054;-74
2022/04/10 08:59:58;;;;;;;7.97;1.60;;;;;;;;;;5099901;28;20052;-78
2022/04/10 09:02:24;;;;;;;7.50;1.75;;;;;;;;;;5095175;28;20043;-79
2022/04/10 09:04:51;;;;;;;6.10;1.35;;;;;;;;;;5122119;27;20055;-75
2022/04/10 09:07:17;;;;;;;7.70;1.75;;;;;;;;;;5071561;28;20134;-75
2022/04/10 09:09:52;;;;;;;7.63;1.88;;;;;;;;;;5103849;28;20040;-74
2022/04/10 09:12:18;;;;;;;6.38;1.42;;;;;;;;;;5086375;28;20044;-81
2022/04/10 09:14:44;;;;;;;7.72;1.83;;;;;;;;;;5081435;28;20134;-76
2022/04/10 09:17:15;;;;;;;8.73;1.58;;;;;;;;;;5076622;28;20043;-74
2022/04/10 09:19:42;;;;;;;6.78;1.40;;;;;;;;;;5064501;28;20048;-75
2022/04/10 09:22:21;;;;;;;9.40;1.55;;;;;;;;;;5136597;27;20252;-74
2022/04/10 09:25:05;;;;;;;12.93;1.70;;;;;;;;;;5126150;27;20102;-75
2022/04/10 09:27:35;;;;;;;10.75;1.67;;;;;;;;;;5073810;28;20044;-75
2022/04/10 09:30:02;;;;;;;6.07;1.83;;;;;;;;;;5093195;28;20050;-75
2022/04/10 09:32:41;;;;;;;12.65;2.25;;;;;;;;;;5080786;28;20101;-81
2022/04/10 09:35:08;;;;;;;13.73;2.40;;;;;;;;;;5097706;28;20438;-75
2022/04/10 09:37:42;;;;;;;7.47;1.70;;;;;;;;;;5074035;28;20056;-79
2022/04/10 09:40:23;;;;;;;8.70;1.92;;;;;;;;;;5073878;28;20071;-76
2022/04/10 09:42:50;;;;;;;10.55;2.55;;;;;;;;;;5082685;28;20044;-76
2022/04/10 09:45:29;;;;;;;9.80;2.20;;;;;;;;;;5091843;28;20094;-76
2022/04/10 09:47:55;;;;;;;10.98;1.90;;;;;;;;;;5088028;28;20040;-79
2022/04/10 09:50:31;;;;;;;9.63;1.65;;;;;;;;;;5078148;28;20428;-77
2022/04/10 09:52:58;;;;;;;7.75;1.45;;;;;;;;;;5091537;28;20386;-75
2022/04/10 09:55:34;;;;;;;7.20;1.88;;;;;;;;;;5093749;28;20044;-78
2022/04/10 09:58:01;;;;;;;10.55;1.58;;;;;;;;;;5060119;28;20043;-78
2022/04/10 10:00:27;;;;;;;10.38;2.15;;;;;;;;;;5094896;28;20044;-78
2022/04/10 10:02:54;;;;;;;13.52;2.90;;;;;;;;;;5082915;28;20181;-79
2022/04/10 10:05:20;;;;;;;9.88;3.08;;;;;;;;;;5091907;28;20487;-78
2022/04/10 10:07:48;;;;;;;5.10;1.65;;;;;;;;;;5075341;28;20625;-76
2022/04/10 10:10:17;;;;;;;4.72;1.38;;;;;;;;;;5079459;28;20368;-77
2022/04/10 10:12:45;;;;;;;9.35;1.95;;;;;;;;;;5073318;28;20399;-76
2022/04/10 10:15:11;;;;;;;7.45;1.95;;;;;;;;;;5085633;28;20401;-72
2022/04/10 10:17:38;;;;;;;9.20;2.30;;;;;;;;;;5092430;28;20043;-75
2022/04/10 10:20:06;;;;;;;8.75;1.60;;;;;;;;;;5088877;28;20039;-74
2022/04/10 10:22:32;;;;;;;7.68;1.65;;;;;;;;;;5090370;28;20048;-77
2022/04/10 10:25:00;;;;;;;4.68;1.30;;;;;;;;;;5089125;28;20474;-72
2022/04/10 10:27:33;;;;;;;8.75;1.92;;;;;;;;;;5085628;28;20040;-73
2022/04/10 10:30:08;;;;;;;11.32;1.88;;;;;;;;;;5087410;28;20078;-77
2022/04/10 10:32:34;;;;;;;9.10;2.28;;;;;;;;;;5086336;28;20059;-72
2022/04/10 10:35:01;;;;;;;14.02;2.20;;;;;;;;;;5088995;28;20563;-74
2022/04/10 10:37:28;;;;;;;7.10;2.40;;;;;;;;;;5090271;28;20105;-73
2022/04/10 10:39:54;;;;;;;10.68;2.08;;;;;;;;;;5077799;28;20132;-76
2022/04/10 10:42:22;;;;;;;9.73;2.03;;;;;;;;;;5096911;28;20458;-74
2022/04/10 10:44:51;;;;;;;8.20;1.77;;;;;;;;;;5113129;27;20054;-73
2022/04/10 10:47:19;;;;;;;9.57;1.95;;;;;;;;;;5113473;27;20119;-74
2022/04/10 10:49:46;;;;;;;11.50;2.85;;;;;;;;;;5078862;28;20039;-74
2022/04/10 10:52:14;;;;;;;7.97;1.92;;;;;;;;;;5092866;28;20425;-74
2022/04/10 10:54:45;;;;;;;7.15;1.33;;;;;;;;;;5078846;28;20055;-73
2022/04/10 10:57:31;;;;;;;11.15;2.28;;;;;;;;;;5103399;27;20043;-73
2022/04/10 11:00:08;;;;;;;11.82;1.90;;;;;;;;;;5102399;27;20138;-73
2022/04/10 11:02:35;;;;;;;8.63;1.73;;;;;;;;;;5072393;28;20089;-77
2022/04/10 11:05:05;;;;;;;13.02;2.22;;;;;;;;;;5123894;27;20051;-75
2022/04/10 11:07:36;;;;;;;7.82;2.05;;;;;;;;;;5090102;27;20074;-74
2022/04/10 11:10:09;;;;;;;8.85;1.63;;;;;;;;;;5117791;27;20047;-75
2022/04/10 11:12:38;;;;;;;9.95;2.17;;;;;;;;;;5089989;27;20107;-78
2022/04/10 11:15:05;;;;;;;8.05;1.42;;;;;;;;;;5074783;28;20047;-75
2022/04/10 11:17:32;;;;;;;8.05;1.50;;;;;;;;;;5092241;28;20036;-75
2022/04/10 11:20:07;;;;;;;8.70;1.35;;;;;;;;;;5088676;27;20059;-76
2022/04/10 11:22:47;;;;;;;14.48;2.13;;;;;;;;;;5073659;28;20043;-76
2022/04/10 11:25:14;;;;;;;7.75;1.60;;;;;;;;;;5092192;27;21365;-76
2022/04/10 11:27:41;;;;;;;5.18;1.42;;;;;;;;;;5091384;27;20176;-76
2022/04/10 11:30:07;;;;;;;10.32;1.30;;;;;;;;;;5129058;27;20114;-75
2022/04/10 11:32:41;;;;;;;8.25;1.52;;;;;;;;;;5075092;27;20047;-75
2022/04/10 11:35:13;;;;;;;9.90;1.20;;;;;;;;;;5103571;27;20090;-76
2022/04/10 11:37:39;;;;;;;5.82;1.00;;;;;;;;;;5088982;28;20087;-75
2022/04/10 11:40:07;;;;;;;8.15;1.70;;;;;;;;;;5089234;27;20039;-76
2022/04/10 11:42:34;;;;;;;6.78;1.38;;;;;;;;;;5067909;28;20393;-80
2022/04/10 11:45:00;;;;;;;10.85;1.40;;;;;;;;;;5084558;28;20076;-77
2022/04/10 11:47:27;;;;;;;8.45;1.30;;;;;;;;;;5072575;28;20050;-82
2022/04/10 11:49:54;;;;;;;6.07;1.15;;;;;;;;;;5087093;28;21640;-83
2022/04/10 11:52:21;;;;;;;6.90;1.50;;;;;;;;;;5086388;28;20044;-80
2022/04/10 11:54:50;;;;;;;7.68;1.38;;;;;;;;;;5066378;28;20043;-78
2022/04/10 11:57:16;;;;;;;7.88;1.38;;;;;;;;;;5101284;27;20048;-73
2022/04/10 11:59:43;;;;;;;6.78;1.27;;;;;;;;;;5071845;28;20036;-74
2022/04/10 12:02:14;;;;;;;9.35;1.30;;;;;;;;;;5092471;28;20470;-73
2022/04/10 12:04:41;;;;;;;8.10;1.02;;;;;;;;;;5090541;28;20048;-72
2022/04/10 12:07:18;;;;;;;4.80;1.30;;;;;;;;;;5072700;27;20040;-74
2022/04/10 12:09:45;;;;;;;6.75;1.23;;;;;;;;;;5072925;28;20067;-72
2022/04/10 12:12:11;;;;;;;6.57;1.02;;;;;;;;;;5088586;28;20036;-72
2022/04/10 12:14:38;;;;;;;8.38;1.30;;;;;;;;;;5074415;28;20402;-72
2022/04/10 12:17:04;;;;;;;7.45;1.38;;;;;;;;;;5090972;28;20047;-72
2022/04/10 12:19:30;;;;;;;7.85;1.65;;;;;;;;;;5090375;28;20039;-72
2022/04/10 12:21:57;;;;;;;5.53;1.38;;;;;;;;;;5090377;28;20040;-72
2022/04/10 12:24:23;;;;;;;6.50;1.27;;;;;;;;;;5092440;28;20043;-72
2022/04/10 12:26:52;;;;;;;5.53;1.27;;;;;;;;;;5075029;28;20047;-72
2022/04/10 12:29:19;;;;;;;4.22;0.98;;;;;;;;;;5075997;28;20098;-72
2022/04/10 12:31:45;;;;;;;7.28;1.17;;;;;;;;;;5109457;28;20126;-72
2022/04/10 12:34:13;;;;;;;5.03;1.00;;;;;;;;;;5092077;28;20079;-72
2022/04/10 12:36:47;;;;;;;4.88;1.15;;;;;;;;;;5072565;28;20051;-72
2022/04/10 12:39:25;;;;;;;8.35;1.17;;;;;;;;;;5090484;28;20813;-72
2022/04/10 12:42:01;;;;;;;4.15;0.90;;;;;;;;;;5090991;28;20386;-72
2022/04/10 12:44:28;;;;;;;5.22;1.23;;;;;;;;;;5075794;28;20043;-72
2022/04/10 12:46:54;;;;;;;4.63;1.23;;;;;;;;;;5088995;28;20052;-72
2022/04/10 12:49:20;;;;;;;7.50;1.83;;;;;;;;;;5092270;28;20040;-72
2022/04/10 12:51:47;;;;;;;5.85;1.42;;;;;;;;;;5090261;28;20044;-72
2022/04/10 12:54:13;;;;;;;7.20;1.60;;;;;;;;;;5088857;28;20043;-72
2022/04/10 12:56:39;;;;;;;8.15;1.52;;;;;;;;;;5074113;28;20081;-72
2022/04/10 12:59:06;;;;;;;5.38;1.05;;;;;;;;;;5091702;28;20569;-73
2022/04/10 13:01:32;;;;;;;8.70;1.40;;;;;;;;;;5071499;28;20055;-73
2022/04/10 13:03:59;;;;;;;4.18;1.02;;;;;;;;;;5090633;28;20128;-73
2022/04/10 13:06:46;;;;;;;6.43;1.10;;;;;;;;;;5075075;28;20057;-74
2022/04/10 13:09:12;;;;;;;7.03;1.50;;;;;;;;;;5091652;28;20047;-73
2022/04/10 13:11:40;;;;;;;5.60;1.30;;;;;;;;;;5108138;28;20043;-72
2022/04/10 13:14:08;;;;;;;5.32;1.20;;;;;;;;;;5091234;28;20131;-73
2022/04/10 13:16:46;;;;;;;6.53;1.17;;;;;;;;;;5073895;28;20447;-72
2022/04/10 13:19:14;;;;;;;9.63;1.08;;;;;;;;;;5125210;28;20048;-72
2022/04/10 13:21:42;;;;;;;6.50;1.10;;;;;;;;;;5074886;28;20044;-72
2022/04/10 13:24:09;;;;;;;4.30;1.08;;;;;;;;;;5060512;28;20300;-71
2022/04/10 13:26:36;;;;;;;5.35;1.05;;;;;;;;;;5096015;28;20092;-71
2022/04/10 13:29:04;;;;;;;5.75;1.23;;;;;;;;;;5094552;28;20040;-74
2022/04/10 13:31:30;;;;;;;9.38;1.33;;;;;;;;;;5079416;28;20039;-73
2022/04/10 13:33:56;;;;;;;7.63;1.20;;;;;;;;;;5094114;28;20075;-72
2022/04/10 13:36:23;;;;;;;9.50;1.40;;;;;;;;;;5095044;28;20119;-72
2022/04/10 13:38:49;;;;;;;4.15;1.35;;;;;;;;;;5076696;28;20043;-73
2022/04/10 13:41:15;;;;;;;8.00;1.70;;;;;;;;;;5113973;28;20090;-72
2022/04/10 13:43:41;;;;;;;5.50;0.95;;;;;;;;;;5093671;28;20036;-72
2022/04/10 13:46:07;;;;;;;4.85;1.02;;;;;;;;;;5086740;28;20047;-72
2022/04/10 13:48:33;;;;;;;6.95;1.33;;;;;;;;;;5095394;28;20118;-72
2022/04/10 13:51:01;;;;;;;6.57;0.98;;;;;;;;;;5094423;28;20055;-73
2022/04/10 13:53:27;;;;;;;6.82;1.00;;;;;;;;;;5092903;28;20058;-72
2022/04/10 13:55:53;;;;;;;5.63;1.08;;;;;;;;;;5112157;28;20058;-72
2022/04/10 13:58:19;;;;;;;5.22;1.13;;;;;;;;;;5145132;27;20040;-74
2022/04/10 14:00:45;;;;;;;4.80;1.38;;;;;;;;;;5128255;27;20047;-73
2022/04/10 14:03:11;;;;;;;4.78;1.40;;;;;;;;;;5076647;28;20059;-72
2022/04/10 14:05:37;;;;;;;6.50;1.13;;;;;;;;;;5091524;28;20043;-72
2022/04/10 14:08:03;;;;;;;4.40;1.00;;;;;;;;;;5077558;28;20047;-72
2022/04/10 14:10:29;;;;;;;9.02;1.50;;;;;;;;;;5095417;28;20043;-72
2022/04/10 14:12:56;;;;;;;6.13;1.27;;;;;;;;;;5093333;28;20246;-74
2022/04/10 14:15:22;;;;;;;5.57;0.90;;;;;;;;;;5103258;27;20432;-72
2022/04/10 14:17:50;;;;;;;4.38;0.90;;;;;;;;;;5092830;28;20445;-73
2022/04/10 14:20:16;;;;;;;5.30;0.95;;;;;;;;;;5073401;27;20244;-73
2022/04/10 14:22:42;;;;;;;4.95;1.20;;;;;;;;;;5095513;28;20044;-72
2022/04/10 14:25:08;;;;;;;9.65;1.42;;;;;;;;;;5092354;28;20100;-73
2022/04/10 14:27:34;;;;;;;5.68;0.93;;;;;;;;;;5095125;28;20043;-72
2022/04/10 14:30:00;;;;;;;5.20;1.80;;;;;;;;;;5092717;28;20108;-71
2022/04/10 14:32:27;;;;;;;4.40;1.08;;;;;;;;;;5093887;28;20052;-73
2022/04/10 14:34:53;;;;;;;3.65;0.80;;;;;;;;;;5074038;28;20826;-72
2022/04/10 14:37:19;;;;;;;9.40;1.80;;;;;;;;;;5074328;28;20169;-72
2022/04/10 14:39:45;;;;;;;3.42;1.00;;;;;;;;;;5092275;28;20036;-72
2022/04/10 14:42:11;;;;;;;4.10;0.80;;;;;;;;;;5077579;28;20043;-72
2022/04/10 14:44:38;;;;;;;4.00;0.82;;;;;;;;;;5075387;28;20056;-72
2022/04/10 14:47:04;;;;;;;8.07;0.85;;;;;;;;;;5093858;28;20054;-72
2022/04/10 14:49:30;;;;;;;5.97;0.90;;;;;;;;;;5077132;28;20130;-72
2022/04/10 14:51:56;;;;;;;6.78;1.10;;;;;;;;;;5092605;28;20385;-73
2022/04/10 14:54:22;;;;;;;6.45;1.00;;;;;;;;;;5110992;28;20057;-73
2022/04/10 14:56:48;;;;;;;7.22;1.27;;;;;;;;;;5094580;28;20044;-72
2022/04/10 14:59:14;;;;;;;6.63;0.93;;;;;;;;;;5092568;28;20047;-73
2022/04/10 15:01:41;;;;;;;9.70;1.48;;;;;;;;;;5061004;28;20066;-72